createdAt,value
2018-05-26T00:00:18.661Z,99.90
2018-05-26T00:02:46.166Z,99.90
2018-05-26T00:05:14.467Z,99.90
2018-05-26T00:07:41.985Z,99.90
2018-05-26T00:10:10.307Z,99.90
2018-05-26T00:12:37.825Z,99.90
2018-05-26T00:15:06.105Z,99.90
2018-05-26T00:17:33.646Z,99.90
2018-05-26T00:20:01.163Z,99.90
2018-05-26T00:22:28.702Z,99.90
2018-05-26T00:24:56.244Z,99.90
2018-05-26T00:27:23.774Z,99.90
2018-05-26T00:29:51.320Z,99.90
2018-05-26T00:32:18.852Z,99.90
2018-05-26T00:34:46.390Z,99.90
2018-05-26T00:37:13.898Z,99.90
2018-05-26T00:39:41.435Z,99.90
2018-05-26T00:42:08.983Z,99.90
2018-05-26T00:44:36.501Z,99.90
2018-05-26T00:47:04.809Z,99.90
2018-05-26T00:49:32.332Z,99.90
2018-05-26T00:52:00.628Z,99.90
2018-05-26T00:54:28.181Z,99.90
2018-05-26T00:56:55.708Z,99.90
2018-05-26T00:59:23.264Z,99.90
2018-05-26T01:01:50.785Z,99.90
2018-05-26T01:04:18.301Z,99.90
2018-05-26T01:06:46.598Z,99.90
2018-05-26T01:09:14.124Z,99.90
2018-05-26T01:11:42.434Z,99.90
2018-05-26T01:14:09.959Z,99.90
2018-05-26T01:16:38.233Z,99.90
2018-05-26T01:19:06.565Z,99.90
2018-05-26T01:21:34.111Z,99.90
2018-05-26T01:24:01.658Z,99.90
2018-05-26T01:26:29.183Z,99.90
2018-05-26T01:28:56.693Z,99.90
2018-05-26T01:31:24.219Z,99.90
2018-05-26T01:33:52.527Z,99.90
2018-05-26T01:36:20.079Z,99.90
2018-05-26T01:38:47.602Z,99.90
2018-05-26T01:41:15.908Z,99.90
2018-05-26T01:43:43.461Z,99.90
2018-05-26T01:46:10.987Z,99.90
2018-05-26T01:48:39.315Z,99.90
2018-05-26T01:51:06.836Z,99.90
2018-05-26T01:53:35.117Z,99.90
2018-05-26T01:56:03.509Z,99.90
2018-05-26T01:58:31.019Z,99.90
2018-05-26T02:00:58.556Z,99.90
2018-05-26T02:03:26.079Z,99.90
2018-05-26T02:05:53.590Z,99.90
2018-05-26T02:08:21.118Z,99.90
2018-05-26T02:10:48.647Z,99.90
2018-05-26T02:13:16.199Z,99.90
2018-05-26T02:15:44.469Z,99.90
2018-05-26T02:18:12.760Z,99.90
2018-05-26T02:20:40.355Z,99.90
2018-05-26T02:23:07.889Z,99.90
2018-05-26T02:25:35.446Z,99.90
2018-05-26T02:28:02.982Z,99.90
2018-05-26T02:30:31.268Z,99.90
2018-05-26T02:32:58.802Z,99.90
2018-05-26T02:35:27.109Z,99.90
2018-05-26T02:37:54.690Z,99.90
2018-05-26T02:40:22.206Z,99.90
2018-05-26T02:42:50.710Z,99.90
2018-05-26T02:45:18.263Z,99.90
2018-05-26T02:47:45.808Z,99.90
2018-05-26T02:50:14.122Z,99.90
2018-05-26T02:52:41.673Z,99.90
2018-05-26T02:55:09.189Z,99.90
2018-05-26T02:57:38.417Z,99.90
2018-05-26T03:00:05.959Z,99.90
2018-05-26T03:02:35.250Z,99.90
2018-05-26T03:05:09.244Z,99.90
2018-05-26T03:07:42.472Z,99.90
2018-05-26T03:10:15.719Z,99.90
2018-05-26T03:12:48.907Z,99.90
2018-05-26T03:15:15.960Z,99.90
2018-05-26T03:17:57.012Z,99.90
2018-05-26T03:20:24.563Z,99.90
2018-05-26T03:22:52.128Z,99.90
2018-05-26T03:25:19.674Z,99.90
2018-05-26T03:27:47.202Z,99.90
2018-05-26T03:30:14.717Z,99.90
2018-05-26T03:32:42.282Z,99.90
2018-05-26T03:35:10.584Z,99.90
2018-05-26T03:37:38.862Z,99.90
2018-05-26T03:40:07.164Z,99.90
2018-05-26T03:42:34.742Z,99.90
2018-05-26T03:45:02.304Z,99.90
2018-05-26T03:47:29.816Z,99.90
2018-05-26T03:49:58.142Z,99.90
2018-05-26T03:52:25.757Z,99.90
2018-05-26T03:58:13.636Z,99.90
2018-05-26T04:00:41.509Z,99.90
2018-05-26T04:03:09.064Z,99.90
2018-05-26T04:05:36.597Z,99.90
2018-05-26T04:08:04.123Z,99.90
2018-05-26T04:10:31.633Z,99.90
2018-05-26T04:12:59.167Z,99.90
2018-05-26T04:15:27.448Z,99.90
2018-05-26T04:17:54.959Z,99.90
2018-05-26T04:20:22.512Z,99.90
2018-05-26T04:22:50.039Z,99.90
2018-05-26T04:25:17.558Z,99.90
2018-05-26T04:27:45.877Z,99.90
2018-05-26T04:30:13.425Z,99.90
2018-05-26T04:32:40.937Z,99.90
2018-05-26T04:35:08.471Z,99.90
2018-05-26T04:37:36.010Z,99.90
2018-05-26T04:40:03.561Z,99.90
2018-05-26T04:42:31.082Z,99.90
2018-05-26T04:44:59.375Z,99.90
2018-05-26T04:47:27.699Z,99.90
2018-05-26T04:49:55.237Z,99.90
2018-05-26T04:52:22.789Z,99.90
2018-05-26T04:54:50.363Z,99.90
2018-05-26T04:57:17.890Z,99.90
2018-05-26T04:59:46.186Z,99.90
2018-05-26T05:02:13.714Z,99.90
2018-05-26T05:04:42.043Z,99.90
2018-05-26T05:07:09.573Z,99.90
2018-05-26T05:09:37.093Z,99.90
2018-05-26T05:12:04.639Z,99.90
2018-05-26T05:14:32.168Z,99.90
2018-05-26T05:16:59.727Z,99.90
2018-05-26T05:19:27.247Z,99.90
2018-05-26T05:21:55.555Z,99.90
2018-05-26T05:24:24.091Z,99.90
2018-05-26T05:26:52.570Z,99.90
2018-05-26T05:29:20.167Z,99.90
2018-05-26T05:31:47.693Z,99.90
2018-05-26T05:34:15.986Z,99.90
2018-05-26T05:36:43.532Z,99.90
2018-05-26T05:39:11.837Z,99.90
2018-05-26T05:41:39.380Z,99.90
2018-05-26T05:44:06.908Z,99.90
2018-05-26T05:46:34.432Z,99.90
2018-05-26T05:49:02.226Z,99.90
2018-05-26T05:51:29.856Z,99.90
2018-05-26T05:53:57.414Z,99.90
2018-05-26T05:56:24.973Z,99.90
2018-05-26T05:58:52.483Z,99.90
2018-05-26T06:01:20.808Z,99.90
2018-05-26T06:03:48.352Z,99.90
2018-05-26T06:06:15.895Z,99.90
2018-05-26T06:08:43.410Z,99.90
2018-05-26T06:11:10.938Z,99.90
2018-05-26T06:13:38.715Z,99.90
2018-05-26T06:16:06.273Z,99.90
2018-05-26T06:18:33.827Z,99.90
2018-05-26T06:21:01.747Z,99.90
2018-05-26T06:23:30.055Z,99.90
2018-05-26T06:25:57.627Z,99.90
2018-05-26T06:28:25.161Z,99.90
2018-05-26T06:30:52.704Z,99.90
2018-05-26T06:33:20.230Z,99.90
2018-05-26T06:35:47.763Z,99.90
2018-05-26T06:38:15.307Z,99.90
2018-05-26T06:40:42.933Z,99.90
2018-05-26T06:43:11.267Z,99.90
2018-05-26T06:45:38.781Z,99.90
2018-05-26T06:48:06.301Z,99.90
2018-05-26T06:50:33.863Z,99.90
2018-05-26T06:53:02.017Z,99.90
2018-05-26T06:55:29.562Z,99.90
2018-05-26T06:57:57.065Z,99.90
2018-05-26T07:00:25.387Z,99.90
2018-05-26T07:02:52.918Z,99.90
2018-05-26T07:05:20.435Z,99.90
2018-05-26T07:07:47.990Z,99.90
2018-05-26T07:10:15.605Z,99.90
2018-05-26T07:12:43.143Z,99.90
2018-05-26T07:15:10.696Z,99.90
2018-05-26T07:17:38.988Z,99.90
2018-05-26T07:20:06.565Z,99.90
2018-05-26T07:22:34.128Z,99.90
2018-05-26T07:25:01.646Z,99.90
2018-05-26T07:27:30.303Z,99.90
2018-05-26T07:29:57.821Z,99.90
2018-05-26T07:32:25.389Z,99.90
2018-05-26T07:34:52.915Z,99.90
2018-05-26T07:37:21.214Z,99.90
2018-05-26T07:39:49.734Z,99.90
2018-05-26T07:42:17.361Z,99.90
2018-05-26T07:44:44.912Z,99.90
2018-05-26T07:47:12.448Z,99.90
2018-05-26T07:49:39.973Z,99.90
2018-05-26T07:52:07.507Z,99.90
2018-05-26T07:54:35.046Z,99.90
2018-05-26T07:57:02.624Z,99.90
2018-05-26T07:59:30.166Z,99.90
2018-05-26T08:01:57.686Z,99.90
2018-05-26T08:04:25.991Z,99.90
2018-05-26T08:06:54.321Z,99.90
2018-05-26T08:09:21.850Z,99.90
2018-05-26T08:11:49.377Z,99.90
2018-05-26T08:14:16.953Z,99.90
2018-05-26T08:16:44.464Z,99.90
2018-05-26T08:19:12.001Z,99.90
2018-05-26T08:21:39.644Z,99.90
2018-05-26T08:24:07.201Z,99.90
2018-05-26T08:26:34.744Z,99.90
2018-05-26T08:29:02.281Z,99.90
2018-05-26T08:31:29.844Z,99.90
2018-05-26T08:33:57.374Z,99.90
2018-05-26T08:36:24.985Z,99.90
2018-05-26T08:38:52.549Z,99.90
2018-05-26T08:41:20.115Z,99.90
2018-05-26T08:43:47.669Z,99.90
2018-05-26T08:46:15.184Z,99.90
2018-05-26T08:48:43.468Z,99.90
2018-05-26T08:51:11.789Z,99.90
2018-05-26T08:53:39.316Z,99.90
2018-05-26T08:56:06.883Z,99.90
2018-05-26T08:58:34.445Z,99.90
2018-05-26T09:01:01.961Z,99.90
2018-05-26T09:03:30.262Z,99.90
2018-05-26T09:05:57.821Z,99.90
2018-05-26T09:08:25.342Z,99.90
2018-05-26T09:10:52.956Z,99.90
2018-05-26T09:13:20.476Z,99.90
2018-05-26T09:15:48.752Z,99.90
2018-05-26T09:18:18.398Z,99.30
2018-05-26T09:20:45.923Z,99.30
2018-05-26T09:23:14.241Z,99.90
2018-05-26T09:25:41.890Z,99.90
2018-05-26T09:28:09.477Z,99.90
2018-05-26T09:30:37.136Z,99.60
2018-05-26T09:33:04.666Z,99.00
2018-05-26T09:35:32.216Z,99.90
2018-05-26T09:37:59.737Z,99.40
2018-05-26T09:40:28.088Z,99.10
2018-05-26T09:42:55.626Z,98.40
2018-05-26T09:45:23.151Z,99.30
2018-05-26T09:47:51.465Z,98.60
2018-05-26T09:50:18.997Z,98.60
2018-05-26T09:52:46.518Z,97.80
2018-05-26T09:55:14.051Z,97.70
2018-05-26T09:57:41.576Z,97.80
2018-05-26T10:00:09.124Z,97.40
2018-05-26T10:02:37.398Z,97.50
2018-05-26T10:05:04.920Z,97.40
2018-05-26T10:07:32.469Z,95.80
2018-05-26T10:10:00.013Z,96.60
2018-05-26T10:12:27.562Z,96.70
2018-05-26T10:14:55.089Z,95.20
2018-05-26T10:17:23.390Z,94.80
2018-05-26T10:19:50.999Z,94.80
2018-05-26T10:22:18.507Z,95.30
2018-05-26T10:24:46.055Z,94.40
2018-05-26T10:27:13.593Z,95.20
2018-05-26T10:29:41.899Z,93.40
2018-05-26T10:32:09.498Z,93.40
2018-05-26T10:34:37.035Z,93.70
2018-05-26T10:37:04.686Z,95.40
2018-05-26T10:39:32.211Z,94.10
2018-05-26T10:42:00.517Z,92.70
2018-05-26T10:44:28.073Z,92.70
2018-05-26T10:46:55.611Z,92.20
2018-05-26T10:49:23.164Z,91.60
2018-05-26T10:51:51.390Z,91.30
2018-05-26T10:54:18.992Z,90.40
2018-05-26T10:56:46.624Z,91.60
2018-05-26T10:59:14.195Z,90.60
2018-05-26T11:01:42.526Z,90.60
2018-05-26T11:04:10.084Z,90.60
2018-05-26T11:06:44.408Z,90.40
2018-05-26T11:09:11.988Z,90.00
2018-05-26T11:11:40.044Z,88.80
2018-05-26T11:14:09.079Z,85.00
2018-05-26T11:16:36.874Z,83.90
2018-05-26T11:19:06.889Z,85.80
2018-05-26T11:21:36.309Z,84.50
2018-05-26T11:24:04.375Z,84.40
2018-05-26T11:26:32.064Z,81.40
2018-05-26T11:28:59.762Z,81.90
2018-05-26T11:31:28.344Z,81.00
2018-05-26T11:33:56.645Z,81.40
2018-05-26T11:36:26.023Z,83.00
2018-05-26T11:38:54.475Z,82.20
2018-05-26T11:41:23.946Z,80.40
2018-05-26T11:43:51.727Z,80.40
2018-05-26T11:46:19.583Z,81.00
2018-05-26T11:48:48.499Z,78.40
2018-05-26T11:51:16.120Z,77.50
2018-05-26T11:53:43.808Z,77.50
2018-05-26T11:56:11.444Z,77.50
2018-05-26T11:58:38.988Z,76.40
2018-05-26T12:01:06.549Z,75.40
2018-05-26T12:03:34.286Z,75.80
2018-05-26T12:06:02.573Z,76.90
2018-05-26T12:08:33.743Z,76.50
2018-05-26T12:11:01.290Z,76.40
2018-05-26T12:13:28.829Z,75.90
2018-05-26T12:15:57.163Z,75.90
2018-05-26T12:18:24.688Z,75.80
2018-05-26T12:20:55.785Z,74.00
2018-05-26T12:23:23.405Z,75.20
2018-05-26T12:25:51.710Z,74.30
2018-05-26T12:28:19.576Z,74.00
2018-05-26T12:30:47.159Z,71.80
2018-05-26T12:33:15.970Z,72.90
2018-05-26T12:35:43.984Z,70.90
2018-05-26T12:38:11.536Z,68.50
2018-05-26T12:40:39.161Z,65.90
2018-05-26T12:43:07.829Z,63.00
2018-05-26T12:45:36.095Z,62.10
2018-05-26T12:48:04.371Z,61.80
2018-05-26T12:50:33.520Z,59.70
2018-05-26T12:53:01.355Z,59.60
2018-05-26T12:55:30.616Z,58.80
2018-05-26T12:57:58.405Z,58.70
2018-05-26T13:00:27.116Z,57.50
2018-05-26T13:02:54.684Z,57.30
2018-05-26T13:05:22.217Z,56.30
2018-05-26T13:07:50.679Z,56.30
2018-05-26T13:10:18.316Z,56.30
2018-05-26T13:12:46.529Z,54.90
2018-05-26T13:15:14.871Z,53.30
2018-05-26T13:17:43.160Z,53.30
2018-05-26T13:20:10.798Z,52.60
2018-05-26T13:22:38.606Z,51.20
2018-05-26T13:25:07.213Z,50.30
2018-05-26T13:27:35.434Z,51.00
2018-05-26T13:30:04.610Z,50.10
2018-05-26T13:32:32.139Z,50.00
2018-05-26T13:34:59.680Z,51.60
2018-05-26T13:37:27.999Z,50.40
2018-05-26T13:39:55.508Z,50.30
2018-05-26T13:42:23.807Z,50.20
2018-05-26T13:44:51.374Z,50.10
2018-05-26T13:47:18.895Z,49.70
2018-05-26T13:49:47.222Z,48.80
2018-05-26T13:52:14.893Z,48.80
2018-05-26T13:54:42.458Z,47.70
2018-05-26T13:57:09.973Z,46.60
2018-05-26T13:59:37.517Z,48.20
2018-05-26T14:02:05.817Z,48.20
2018-05-26T14:04:33.394Z,48.20
2018-05-26T14:07:01.044Z,49.20
2018-05-26T14:09:28.576Z,48.80
2018-05-26T14:11:56.130Z,47.80
2018-05-26T14:14:24.546Z,47.10
2018-05-26T14:16:52.073Z,47.10
2018-05-26T14:19:19.601Z,44.80
2018-05-26T14:21:47.154Z,44.60
2018-05-26T14:24:14.772Z,43.70
2018-05-26T14:26:42.328Z,45.50
2018-05-26T14:29:09.887Z,44.60
2018-05-26T14:31:37.436Z,43.30
2018-05-26T14:34:04.951Z,43.30
2018-05-26T14:36:32.586Z,43.40
2018-05-26T14:39:00.125Z,44.90
2018-05-26T14:41:27.695Z,43.10
2018-05-26T14:43:55.260Z,43.40
2018-05-26T14:46:22.773Z,42.90
2018-05-26T14:48:51.179Z,42.90
2018-05-26T14:51:18.753Z,42.80
2018-05-26T14:53:46.323Z,43.70
2018-05-26T14:56:13.867Z,42.20
2018-05-26T14:58:41.443Z,42.50
2018-05-26T15:01:08.999Z,42.10
2018-05-26T15:03:36.509Z,42.00
2018-05-26T15:06:04.057Z,41.50
2018-05-26T15:08:32.344Z,42.00
2018-05-26T15:10:59.876Z,41.90
2018-05-26T15:13:27.494Z,41.50
2018-05-26T15:15:55.733Z,42.20
2018-05-26T15:18:24.037Z,42.30
2018-05-26T15:20:52.004Z,42.40
2018-05-26T15:23:19.575Z,43.00
2018-05-26T15:25:47.096Z,44.70
2018-05-26T15:28:15.427Z,46.10
2018-05-26T15:30:42.991Z,46.10
2018-05-26T15:33:10.629Z,45.60
2018-05-26T15:35:38.290Z,45.10
2018-05-26T15:38:05.843Z,44.00
2018-05-26T15:40:33.368Z,44.00
2018-05-26T15:43:01.683Z,43.60
2018-05-26T15:45:29.304Z,43.60
2018-05-26T15:47:57.616Z,46.30
2018-05-26T15:50:25.184Z,46.10
2018-05-26T15:52:52.725Z,46.30
2018-05-26T15:55:20.296Z,47.20
2018-05-26T15:57:47.943Z,46.40
2018-05-26T16:00:15.528Z,45.30
2018-05-26T16:02:43.303Z,45.30
2018-05-26T16:05:10.927Z,44.10
2018-05-26T16:07:38.502Z,44.40
2018-05-26T16:10:06.036Z,42.80
2018-05-26T16:12:33.612Z,42.60
2018-05-26T16:15:01.468Z,42.50
2018-05-26T16:17:28.995Z,41.50
2018-05-26T16:19:57.319Z,41.40
2018-05-26T16:22:24.880Z,41.40
2018-05-26T16:24:52.422Z,41.40
2018-05-26T16:27:20.411Z,40.70
2018-05-26T16:29:47.945Z,40.70
2018-05-26T16:32:15.514Z,41.10
2018-05-26T16:34:43.072Z,40.10
2018-05-26T16:37:10.651Z,41.90
2018-05-26T16:39:39.310Z,43.10
2018-05-26T16:42:06.850Z,43.90
2018-05-26T16:44:34.369Z,43.60
2018-05-26T16:47:01.899Z,42.60
2018-05-26T16:49:29.475Z,42.80
2018-05-26T16:51:57.116Z,42.20
2018-05-26T16:54:24.658Z,41.70
2018-05-26T16:56:52.220Z,42.30
2018-05-26T16:59:19.758Z,41.20
2018-05-26T17:01:48.066Z,41.30
2018-05-26T17:04:15.617Z,41.20
2018-05-26T17:06:43.149Z,41.20
2018-05-26T17:09:11.425Z,41.40
2018-05-26T17:11:39.771Z,41.30
2018-05-26T17:14:07.288Z,41.20
2018-05-26T17:16:34.893Z,41.40
2018-05-26T17:19:02.534Z,41.40
2018-05-26T17:21:30.079Z,41.40
2018-05-26T17:23:57.648Z,41.90
2018-05-26T17:26:25.293Z,42.00
2018-05-26T17:28:52.844Z,41.80
2018-05-26T17:31:20.386Z,42.10
2018-05-26T17:33:47.944Z,42.20
2018-05-26T17:36:15.535Z,42.30
2018-05-26T17:38:43.431Z,42.50
2018-05-26T17:41:11.775Z,42.60
2018-05-26T17:43:39.287Z,42.70
2018-05-26T17:46:07.602Z,43.60
2018-05-26T17:48:35.160Z,43.60
2018-05-26T17:51:02.701Z,43.90
2018-05-26T17:53:30.284Z,44.00
2018-05-26T17:55:57.935Z,44.20
2018-05-26T17:58:25.449Z,44.30
2018-05-26T18:00:53.747Z,45.00
2018-05-26T18:03:21.310Z,44.20
2018-05-26T18:05:48.836Z,44.50
2018-05-26T18:08:17.961Z,45.10
2018-05-26T18:10:45.564Z,45.10
2018-05-26T18:13:13.211Z,46.40
2018-05-26T18:15:40.733Z,47.50
2018-05-26T18:18:09.060Z,49.10
2018-05-26T18:20:36.598Z,48.90
2018-05-26T18:23:04.174Z,49.70
2018-05-26T18:25:31.727Z,49.80
2018-05-26T18:27:59.291Z,50.30
2018-05-26T18:30:26.850Z,50.70
2018-05-26T18:32:54.482Z,50.60
2018-05-26T18:35:21.957Z,50.80
2018-05-26T18:37:49.526Z,50.80
2018-05-26T18:40:17.180Z,50.30
2018-05-26T18:42:44.740Z,50.60
2018-05-26T18:45:12.250Z,50.70
2018-05-26T18:47:40.582Z,51.00
2018-05-26T18:50:08.123Z,51.00
2018-05-26T18:52:35.633Z,51.10
2018-05-26T18:55:03.245Z,51.40
2018-05-26T18:57:30.836Z,52.40
2018-05-26T18:59:58.368Z,53.30
2018-05-26T19:02:25.923Z,54.70
2018-05-26T19:04:53.465Z,55.50
2018-05-26T19:07:21.040Z,56.50
2018-05-26T19:09:48.590Z,56.80
2018-05-26T19:12:16.254Z,57.20
2018-05-26T19:14:43.777Z,57.40
2018-05-26T19:17:12.111Z,58.70
2018-05-26T19:19:41.389Z,58.60
2018-05-26T19:22:08.905Z,59.20
2018-05-26T19:24:37.258Z,60.00
2018-05-26T19:27:04.796Z,60.00
2018-05-26T19:29:32.328Z,60.40
2018-05-26T19:31:59.894Z,61.30
2018-05-26T19:34:27.467Z,62.20
2018-05-26T19:36:55.016Z,62.40
2018-05-26T19:39:22.574Z,62.70
2018-05-26T19:41:50.107Z,63.30
2018-05-26T19:44:18.408Z,63.90
2018-05-26T19:46:45.956Z,63.80
2018-05-26T19:49:13.521Z,64.30
2018-05-26T19:51:41.053Z,64.30
2018-05-26T19:54:09.906Z,65.60
2018-05-26T19:56:38.263Z,65.80
2018-05-26T19:59:05.792Z,65.70
2018-05-26T20:01:33.369Z,66.90
2018-05-26T20:04:00.939Z,67.80
2018-05-26T20:06:28.516Z,67.60
2018-05-26T20:08:56.058Z,67.10
2018-05-26T20:11:23.616Z,68.70
2018-05-26T20:13:51.128Z,69.50
2018-05-26T20:16:19.559Z,69.70
2018-05-26T20:21:21.850Z,70.50
2018-05-26T20:23:49.398Z,70.40
2018-05-26T20:26:16.914Z,70.10
2018-05-26T20:28:45.331Z,70.00
2018-05-26T20:31:12.913Z,69.80
2018-05-26T20:33:40.477Z,70.10
2018-05-26T20:36:08.108Z,70.50
2018-05-26T20:38:35.650Z,71.40
2018-05-26T20:41:03.253Z,70.90
2018-05-26T20:43:30.816Z,70.90
2018-05-26T20:45:58.450Z,70.90
2018-05-26T20:48:25.997Z,71.10
2018-05-26T20:50:53.555Z,71.20
2018-05-26T20:53:21.129Z,71.60
2018-05-26T20:55:48.686Z,71.50
2018-05-26T20:58:16.239Z,71.80
2018-05-26T21:00:43.791Z,71.60
2018-05-26T21:03:12.299Z,72.10
2018-05-26T21:05:39.861Z,72.10
2018-05-26T21:08:07.405Z,72.20
2018-05-26T21:10:34.920Z,72.40
2018-05-26T21:13:03.323Z,72.60
2018-05-26T21:15:30.833Z,72.60
2018-05-26T21:17:58.470Z,73.00
2018-05-26T21:20:26.133Z,73.60
2018-05-26T21:22:53.674Z,73.40
2018-05-26T21:25:21.208Z,73.40
2018-05-26T21:27:48.801Z,73.60
2018-05-26T21:30:16.298Z,74.20
2018-05-26T21:32:44.774Z,74.60
2018-05-26T21:35:12.368Z,74.60
2018-05-26T21:37:39.948Z,74.90
2018-05-26T21:40:07.519Z,75.50
2018-05-26T21:42:35.485Z,75.50
2018-05-26T21:45:03.035Z,75.60
2018-05-26T21:47:30.557Z,75.50
2018-05-26T21:49:58.974Z,75.30
2018-05-26T21:52:26.548Z,75.10
2018-05-26T21:54:54.067Z,75.10
2018-05-26T21:57:21.644Z,75.00
2018-05-26T21:59:49.201Z,75.10
2018-05-26T22:02:16.727Z,75.50
2018-05-26T22:04:45.042Z,75.80
2018-05-26T22:07:12.590Z,75.60
2018-05-26T22:09:40.159Z,75.70
2018-05-26T22:12:07.716Z,75.70
2018-05-26T22:14:35.229Z,75.60
2018-05-26T22:17:03.825Z,76.00
2018-05-26T22:19:32.222Z,76.20
2018-05-26T22:21:59.741Z,76.10
2018-05-26T22:24:28.086Z,76.30
2018-05-26T22:26:55.645Z,76.20
2018-05-26T22:29:23.247Z,76.50
2018-05-26T22:31:50.850Z,76.90
2018-05-26T22:34:18.519Z,77.00
2018-05-26T22:36:46.040Z,77.50
2018-05-26T22:39:13.579Z,78.10
2018-05-26T22:41:41.912Z,78.80
2018-05-26T22:44:10.188Z,78.60
2018-05-26T22:46:38.094Z,78.70
2018-05-26T22:52:31.044Z,78.50
2018-05-26T22:54:58.611Z,78.40
2018-05-26T22:57:26.132Z,78.80
2018-05-26T22:59:53.784Z,78.70
2018-05-26T23:02:21.355Z,78.90
2018-05-26T23:04:48.881Z,79.10
2018-05-26T23:07:17.195Z,80.00
2018-05-26T23:09:44.746Z,80.00
2018-05-26T23:12:12.257Z,80.50
2018-05-26T23:14:40.579Z,81.00
2018-05-26T23:17:08.143Z,80.90
2018-05-26T23:19:35.666Z,81.40
2018-05-26T23:22:03.997Z,81.00
2018-05-26T23:24:31.528Z,81.00
2018-05-26T23:26:59.055Z,81.10
2018-05-26T23:29:27.474Z,81.40
2018-05-26T23:31:55.004Z,81.40
2018-05-26T23:34:22.588Z,81.70
2018-05-26T23:36:50.155Z,82.60
2018-05-26T23:39:17.703Z,82.80
2018-05-26T23:41:45.261Z,82.60
2018-05-26T23:44:12.846Z,82.70
2018-05-26T23:46:40.368Z,82.80
2018-05-26T23:49:07.933Z,83.20
2018-05-26T23:51:35.487Z,83.80
2018-05-26T23:54:02.997Z,84.30
2018-05-26T23:56:30.507Z,84.80
2018-05-26T23:58:58.234Z,85.20
